^^
Meteo Knjazevac Station Historical Data
Daily Summary for April 19, 2021 Units:  Metric    English   Both
Daily Weekly Monthly Yearly Custom
  High: Low: Average:
Temperature: 5.8 °C 4.8 °C 5.1 °C
Dew Point: 5.5 °C 4.7 °C 5 °C
Humidity: 99% 98% 99%
Wind Speed: 8km/h 0km/h 1.3km/h
Wind Gust: 16.1km/h - -
Wind- - SSW
Pressure: 1019.9 hPa 1017.8 hPa -
Precipitation: 0 mm    
Historical Graphs
 
 
Tabular Data for April 19, 2021
Time Temperature Dew Point Pressure Wind Wind Speed Wind Gust Humidity Rainfall Rate (Hourly) solar Conditions
00:00 5.4 °C 5.3 °C 1019.9 hPa Calm   1.6 km/h 99% 0 mm 0 W/m2
00:10 5.4 °C 5.3 °C 1019.9 hPa Calm   1.6 km/h 99% 0 mm 0 W/m2
00:20 5.3 °C 5.2 °C 1019.9 hPa NE 1.6 km/h 3.2 km/h 99% 0 mm 0 W/m2
00:30 5.3 °C 5.2 °C 1019.9 hPa NE 1.6 km/h 3.2 km/h 99% 0 mm 0 W/m2
00:40 5.3 °C 5.2 °C 1019.5 hPa NNE 3.2 km/h 4.8 km/h 99% 0 mm 0 W/m2
00:50 5.3 °C 5.1 °C 1019.5 hPa North 1.6 km/h 4.8 km/h 99% 0 mm 0 W/m2
01:00 5.3 °C 5.2 °C 1019.9 hPa Calm   1.6 km/h 99% 0 mm 0 W/m2
01:10 5.3 °C 5.2 °C 1019.5 hPa Calm   3.2 km/h 99% 0 mm 0 W/m2
01:20 5.3 °C 5.2 °C 1019.5 hPa Calm   3.2 km/h 99% 0 mm 0 W/m2
01:30 5.4 °C 5.3 °C 1019.2 hPa Calm     99% 0 mm 0 W/m2
01:50 5.4 °C 5.3 °C 1019.2 hPa Calm   3.2 km/h 99% 0 mm 0 W/m2
02:00 5.4 °C 5.3 °C 1019.2 hPa North 1.6 km/h 4.8 km/h 99% 0 mm 0 W/m2
02:10 5.3 °C 5.2 °C 1019.2 hPa Calm   4.8 km/h 99% 0 mm 0 W/m2
02:20 5.3 °C 5.2 °C 1019.2 hPa NNW 1.6 km/h 8 km/h 99% 0 mm 0 W/m2
02:30 5.2 °C 5.1 °C 1019.2 hPa NNW 3.2 km/h 8 km/h 99% 0 mm 0 W/m2
02:40 5.2 °C 5.1 °C 1019.2 hPa North 3.2 km/h 8 km/h 99% 0 mm 0 W/m2
02:50 5.2 °C 5.1 °C 1018.8 hPa North 1.6 km/h 8 km/h 99% 0 mm 0 W/m2
03:00 5.2 °C 5.1 °C 1019.2 hPa NNE 1.6 km/h 4.8 km/h 99% 0 mm 0 W/m2
03:10 5.1 °C 4.9 °C 1018.8 hPa Calm   3.2 km/h 99% 0 mm 0 W/m2
03:20 5 °C 4.8 °C 1018.8 hPa Calm   3.2 km/h 99% 0 mm 0 W/m2
03:30 4.9 °C 4.8 °C 1018.8 hPa Calm   4.8 km/h 99% 0 mm 0 W/m2
03:40 4.9 °C 4.8 °C 1019.2 hPa WSW 1.6 km/h 3.2 km/h 99% 0 mm 0 W/m2
03:50 4.8 °C 4.7 °C 1018.8 hPa NW 1.6 km/h 4.8 km/h 99% 0 mm 0 W/m2
04:00 4.8 °C 4.7 °C 1018.8 hPa Calm   3.2 km/h 99% 0 mm 0 W/m2
04:10 4.8 °C 4.7 °C 1018.8 hPa Calm   3.2 km/h 99% 0 mm 0 W/m2
04:30 4.8 °C 4.7 °C 1018.5 hPa Calm   3.2 km/h 99% 0 mm 0 W/m2
04:40 4.8 °C 4.7 °C 1018.5 hPa North 1.6 km/h 6.4 km/h 99% 0 mm 0 W/m2
04:50 4.8 °C 4.7 °C 1018.5 hPa Calm   3.2 km/h 99% 0 mm 0 W/m2
05:00 4.8 °C 4.7 °C 1018.5 hPa Calm   1.6 km/h 99% 0 mm 0 W/m2
05:10 4.8 °C 4.7 °C 1018.5 hPa Calm   3.2 km/h 99% 0 mm 0 W/m2
05:20 4.8 °C 4.7 °C 1018.5 hPa Calm   3.2 km/h 99% 0 mm 0 W/m2
05:30 4.8 °C 4.7 °C 1018.5 hPa Calm   1.6 km/h 99% 0 mm 0 W/m2
05:50 4.9 °C 4.8 °C 1018.2 hPa North 1.6 km/h 4.8 km/h 99% 0 mm 1 W/m2
06:00 4.9 °C 4.8 °C 1018.2 hPa Calm   3.2 km/h 99% 0 mm 3 W/m2
06:20 5.1 °C 4.9 °C 1018.5 hPa Calm   8 km/h 99% 0 mm 17 W/m2
06:30 5.1 °C 4.9 °C 1018.5 hPa NNW 1.6 km/h 8 km/h 99% 0 mm 32 W/m2
07:00 5.4 °C 5.3 °C 1018.2 hPa North 4.8 km/h 9.7 km/h 99% 0 mm 46 W/m2
07:20 5.5 °C 5.3 °C 1018.2 hPa North 8 km/h 16.1 km/h 99% 0 mm 95 W/m2
07:40 5.8 °C 5.5 °C 1017.8 hPa North 8 km/h 16.1 km/h 98% 0 mm 192 W/m2
Knjazevac, Serbia
Compliments of Weather Underground - 2 mb